フンシャル の空港の天気 - METARとTAF

マデイラ空港 ( LPMA / FNC ) - ポルトガル フンシャル (マデイラ諸島)
飛行場実況気象(Metar)
観測時間02/22 06:00 WET (02/22 06:00 UTC)
風向・風速北 4m/s
視程10km以上
天気現象
全天の4割程度の雲 雲底高度 400m
全天の4割程度の雲 雲底高度 910m
気温17℃
湿度77%
気圧1022hPa
METARLPMA 220600Z 01008KT 330V030 9999 SCT013 SCT030 17/13 Q1022
過去の天気等 Google飛行場航空写真 Wunderground天気予報

過去48時間のMETAR

飛行場予報(TAF)
発表時間: 2/21 23:00 WET (2/21 23:00 UTC)
予報対象時間: 22日0時 WET ~ 23日0時 WET
風向・風速北 5m/s
視程10km以上
全天の4割程度の雲 雲底高度 400m
全天の4割程度の雲 雲底高度 910m
22日0時 WET ~ 22日9時 WET に一時的に
視程5000m
天気現象しゅう雨
全天の4割程度の雲 雲底高度 240m
全天の8割程度の雲 雲底高度 400m
少しの積乱雲 雲底高度 610m
22日0時 WET ~ 22日6時 WET に 確率 30% で一時的に
風向・風速不定 10m/s 瞬間風速 15m/s
視程2000m
天気現象強い雷雨
全天の8割程度の雲 雲底高度 300m
全天の4割程度の積乱雲 雲底高度 490m
22日6時 WET ~ 22日8時 WET に徐々に
風向・風速北 8m/s
22日8時 WET ~ 22日18時 WET に一時的に
風向・風速北 9m/s 瞬間風速 15m/s
22日9時 WET ~ 22日11時 WET に徐々に
全天の4割程度の雲 雲底高度 460m
TAF LPMA 212300Z 2200/2224 01010KT 9999 SCT013 SCT030
TEMPO 2200/2209 5000 SHRA SCT008 BKN013 FEW020CB
PROB30 TEMPO 2200/2206 VRB20G30KT 2000 +TSRA BKN010 SCT016CB
BECMG 2206/2208 01015KT
TEMPO 2208/2218 01018G30KT
BECMG 2209/2211 SCT015